Time;durP1;ratioP1;P1;durP2;ratioP2;P2;SDS_P1;SDS_P2;PMS_P1;PMS_P2;Temp;Humidity;BMP_temperature;BMP_pressure;BME280_temperature;BME280_humidity;BME280_pressure;Samples;Min_cycle;Max_cycle;Signal;HPM_P1;HPM_P2
2021/12/16 00:03:41;;;;;;;4.60;2.22;;;26.50;99.90;;;;;;5010992;28;20040;-77
2021/12/16 00:08:59;;;;;;;4.72;2.30;;;26.80;99.90;;;;;;5014915;28;20038;-73
2021/12/16 00:35:52;;;;;;;5.22;2.85;;;30.30;94.20;;;;;;5014654;28;20032;-77
2021/12/16 00:38:19;;;;;;;6.32;2.60;;;30.70;93.50;;;;;;5011318;28;20025;-71
2021/12/16 00:40:46;;;;;;;4.07;3.00;;;30.30;92.60;;;;;;5015624;28;20392;-74
2021/12/16 00:43:26;;;;;;;6.30;2.78;;;29.60;92.70;;;;;;5005400;28;20042;-71
2021/12/16 00:54:11;;;;;;;4.85;3.28;;;27.70;95.80;;;;;;5012877;28;20034;-73
2021/12/16 00:56:41;;;;;;;9.70;3.38;;;28.00;96.70;;;;;;5013347;28;20032;-77
2021/12/16 00:59:11;;;;;;;8.30;4.07;;;28.00;95.90;;;;;;5012012;28;20522;-70
2021/12/16 01:34:30;;;;;;;6.50;4.72;;;27.90;95.50;;;;;;5013549;28;20523;-73
2021/12/16 01:40:01;;;;;;;9.13;5.20;;;27.40;97.00;;;;;;5013909;28;20100;-72
2021/12/16 01:42:37;;;;;;;10.15;5.07;;;27.10;97.20;;;;;;5013056;28;20033;-72
2021/12/16 01:50:28;;;;;;;8.68;5.43;;;27.10;98.00;;;;;;5008113;28;20040;-75
2021/12/16 01:56:08;;;;;;;7.78;4.90;;;28.30;97.40;;;;;;5014762;28;20031;-74
2021/12/16 01:58:36;;;;;;;13.25;4.78;;;28.90;94.20;;;;;;5010737;28;20039;-74
2021/12/16 02:01:18;;;;;;;9.77;4.97;;;28.70;95.60;;;;;;5010473;28;20888;-75
2021/12/16 02:04:01;;;;;;;9.98;4.88;;;28.20;96.40;;;;;;5014572;28;20609;-69
2021/12/16 02:07:08;;;;;;;15.88;5.30;;;27.50;97.80;;;;;;5012518;28;20027;-74
2021/12/16 02:09:43;;;;;;;14.25;5.60;;;27.00;97.80;;;;;;5010391;28;20040;-70
2021/12/16 02:12:40;;;;;;;9.80;4.50;;;27.20;98.60;;;;;;5009909;28;20131;-69
2021/12/16 02:36:43;;;;;;;6.13;4.10;;;30.50;92.00;;;;;;5014214;28;20033;-68
2021/12/16 02:39:32;;;;;;;8.25;4.47;;;30.50;92.40;;;;;;5006105;28;20048;-68
2021/12/16 02:42:15;;;;;;;9.70;4.47;;;31.00;91.20;;;;;;5010093;28;20062;-68
2021/12/16 02:50:16;;;;;;;9.07;4.40;;;30.80;91.10;;;;;;5011074;28;20041;-72
2021/12/16 02:52:43;;;;;;;8.55;4.65;;;30.40;90.70;;;;;;5011901;28;20910;-73
2021/12/16 02:55:13;;;;;;;9.75;4.40;;;30.40;92.90;;;;;;5014781;28;20043;-66
2021/12/16 02:57:50;;;;;;;11.48;4.78;;;30.70;90.90;;;;;;5011324;28;20062;-68
2021/12/16 03:00:18;;;;;;;7.70;3.95;;;30.70;92.10;;;;;;5011305;28;20034;-73
2021/12/16 03:02:48;;;;;;;8.77;4.50;;;30.40;91.80;;;;;;5011846;28;20033;-73
2021/12/16 03:05:18;;;;;;;9.32;5.13;;;30.60;91.60;;;;;;5017708;28;20025;-71
2021/12/16 03:07:46;;;;;;;10.35;4.38;;;31.10;90.70;;;;;;5008152;28;20646;-74
2021/12/16 03:12:58;;;;;;;8.43;4.75;;;29.20;91.80;;;;;;5012502;28;20032;-68
2021/12/16 03:21:24;;;;;;;9.38;4.40;;;28.40;95.20;;;;;;5008169;28;20045;-67
2021/12/16 03:24:42;;;;;;;9.27;4.00;;;28.50;94.70;;;;;;5009712;28;20027;-71
2021/12/16 03:27:19;;;;;;;11.73;4.13;;;28.60;95.00;;;;;;5012329;28;20045;-66
2021/12/16 03:29:58;;;;;;;10.77;4.35;;;28.30;94.60;;;;;;5011807;28;20678;-67
2021/12/16 03:32:49;;;;;;;12.82;4.45;;;28.40;94.50;;;;;;5008773;28;20037;-72
2021/12/16 03:38:08;;;;;;;10.48;4.00;;;29.40;93.00;;;;;;5010969;28;19925;-67
2021/12/16 03:40:37;;;;;;;17.20;4.00;;;29.30;93.30;;;;;;5012886;28;20111;-71
2021/12/16 03:43:16;;;;;;;11.95;4.28;;;28.80;94.20;;;;;;5012238;28;20515;-66
2021/12/16 03:48:36;;;;;;;8.60;4.05;;;28.50;95.00;;;;;;5009776;28;20097;-74
2021/12/16 03:51:08;;;;;;;11.68;4.20;;;29.10;94.20;;;;;;5013874;28;20541;-66
2021/12/16 03:53:36;;;;;;;8.63;3.80;;;28.70;94.40;;;;;;5012347;28;20162;-71
2021/12/16 03:56:05;;;;;;;10.45;4.28;;;28.30;95.40;;;;;;5011797;28;20030;-71
2021/12/16 03:58:33;;;;;;;12.45;5.40;;;28.30;95.50;;;;;;5029460;28;20034;-72
2021/12/16 04:01:04;;;;;;;13.65;3.92;;;28.60;94.00;;;;;;5008185;28;20032;-72
2021/12/16 04:03:32;;;;;;;10.60;4.07;;;28.30;94.90;;;;;;5012309;28;20035;-72
2021/12/16 04:05:59;;;;;;;10.57;3.80;;;28.60;94.30;;;;;;5010527;28;20027;-72
2021/12/16 04:08:27;;;;;;;10.93;4.57;;;28.50;94.90;;;;;;5012523;28;20030;-68
2021/12/16 04:11:04;;;;;;;12.23;4.55;;;27.50;96.40;;;;;;5009226;28;20067;-72
2021/12/16 04:13:36;;;;;;;15.63;4.45;;;27.30;96.50;;;;;;5009888;28;20065;-67
2021/12/16 04:16:04;;;;;;;11.77;4.10;;;27.50;96.10;;;;;;5010643;28;20032;-74
2021/12/16 04:18:31;;;;;;;7.45;4.15;;;27.10;96.60;;;;;;5014024;28;20038;-67
2021/12/16 04:20:59;;;;;;;11.35;3.70;;;26.70;97.90;;;;;;5013727;28;20027;-67
2021/12/16 04:23:26;;;;;;;11.55;4.20;;;27.60;96.90;;;;;;5009807;28;20028;-66
2021/12/16 04:25:54;;;;;;;9.52;3.60;;;27.60;95.40;;;;;;5015906;28;20053;-75
2021/12/16 04:28:26;;;;;;;10.27;4.05;;;27.00;96.50;;;;;;5011158;28;20029;-73
2021/12/16 04:30:54;;;;;;;8.60;4.15;;;26.70;97.10;;;;;;5012429;28;20503;-74
2021/12/16 04:33:21;;;;;;;10.98;3.92;;;26.50;96.80;;;;;;5009707;28;20024;-67
2021/12/16 04:35:48;;;;;;;13.02;4.05;;;26.70;97.10;;;;;;5013750;28;20092;-66
2021/12/16 04:38:16;;;;;;;13.70;3.92;;;26.40;97.50;;;;;;5009364;28;20040;-75
2021/12/16 04:40:46;;;;;;;12.52;3.78;;;26.70;97.30;;;;;;5012344;28;20445;-75
2021/12/16 04:43:19;;;;;;;16.15;4.28;;;26.70;96.90;;;;;;5011045;28;20031;-75
2021/12/16 04:45:48;;;;;;;13.27;4.40;;;27.00;96.00;;;;;;5006182;28;20094;-72
2021/12/16 04:48:15;;;;;;;11.30;4.25;;;26.90;96.10;;;;;;5008685;28;20024;-75
2021/12/16 04:50:42;;;;;;;10.15;3.85;;;26.80;96.70;;;;;;5009103;28;20092;-67
2021/12/16 04:53:09;;;;;;;11.05;3.75;;;26.60;95.90;;;;;;5007159;28;20036;-74
2021/12/16 04:55:36;;;;;;;7.47;3.25;;;26.10;97.20;;;;;;5005434;28;20056;-66
2021/12/16 04:58:03;;;;;;;11.27;3.70;;;26.00;96.80;;;;;;5006727;28;20038;-67
2021/12/16 05:00:30;;;;;;;13.65;3.65;;;25.50;97.70;;;;;;5007532;28;20126;-68
2021/12/16 05:02:57;;;;;;;11.23;3.90;;;24.90;98.30;;;;;;5009198;28;20080;-74
2021/12/16 05:05:27;;;;;;;10.45;3.38;;;24.30;99.90;;;;;;5008299;28;20061;-72
2021/12/16 05:07:54;;;;;;;16.30;3.40;;;24.10;99.90;;;;;;5005792;28;20017;-67
2021/12/16 05:10:22;;;;;;;10.38;3.30;;;23.90;99.90;;;;;;5008273;28;20054;-72
2021/12/16 05:12:58;;;;;;;8.07;3.35;;;23.60;99.90;;;;;;5008821;28;20118;-67
2021/12/16 05:15:31;;;;;;;13.20;3.80;;;23.80;99.90;;;;;;5006593;28;20064;-67
2021/12/16 05:18:01;;;;;;;10.18;3.63;;;23.80;99.90;;;;;;5007456;28;20496;-68
2021/12/16 05:20:42;;;;;;;8.60;2.90;;;23.60;99.90;;;;;;5011448;28;20038;-67
2021/12/16 05:29:00;;;;;;;9.35;2.92;;;24.00;99.90;;;;;;5009568;28;20147;-75
2021/12/16 05:31:28;;;;;;;12.13;3.17;;;24.00;99.90;;;;;;5008729;28;20036;-68
2021/12/16 05:33:57;;;;;;;8.60;3.13;;;23.90;99.90;;;;;;5015004;28;20035;-73
2021/12/16 05:36:25;;;;;;;9.82;4.00;;;23.70;99.90;;;;;;5005337;28;20027;-74
2021/12/16 05:38:52;;;;;;;9.43;2.80;;;23.50;99.90;;;;;;5007349;28;20027;-71
2021/12/16 05:41:21;;;;;;;11.30;2.92;;;23.40;99.90;;;;;;5009532;28;20521;-75
2021/12/16 05:46:22;;;;;;;8.07;3.10;;;23.40;99.90;;;;;;5094752;28;21092;-76
2021/12/16 05:48:51;;;;;;;17.02;4.03;;;23.30;99.90;;;;;;5096292;28;20022;-74
2021/12/16 05:51:22;;;;;;;10.77;2.72;;;23.40;99.90;;;;;;5095262;28;20038;-72
2021/12/16 05:53:51;;;;;;;8.40;3.42;;;23.30;99.90;;;;;;5097259;28;20731;-68
2021/12/16 05:56:19;;;;;;;12.00;3.47;;;23.30;99.90;;;;;;5096231;28;20027;-74
2021/12/16 05:58:46;;;;;;;12.07;3.50;;;23.40;99.90;;;;;;5094977;28;20028;-74
2021/12/16 06:01:24;;;;;;;11.32;4.32;;;23.20;99.90;;;;;;5092905;28;20020;-71
2021/12/16 06:03:53;;;;;;;14.38;4.13;;;23.20;99.90;;;;;;5096072;28;20396;-68
2021/12/16 06:06:22;;;;;;;9.55;3.35;;;23.30;99.90;;;;;;5095296;28;20337;-75
2021/12/16 06:08:50;;;;;;;11.70;3.58;;;23.10;99.90;;;;;;5094933;28;20031;-73
2021/12/16 06:11:22;;;;;;;7.22;3.10;;;23.00;99.90;;;;;;5094700;28;20567;-69
2021/12/16 06:27:56;;;;;;;11.20;3.65;;;22.50;99.90;;;;;;5096766;28;20030;-73
2021/12/16 06:30:28;;;;;;;11.60;3.08;;;22.30;99.90;;;;;;5094648;28;20046;-73
2021/12/16 06:32:55;;;;;;;8.60;3.50;;;22.30;99.90;;;;;;5093195;28;20041;-68
2021/12/16 06:35:23;;;;;;;11.18;3.55;;;22.30;99.90;;;;;;5094135;28;20035;-67
2021/12/16 06:37:51;;;;;;;9.27;2.88;;;22.10;99.90;;;;;;5095030;28;20016;-72
2021/12/16 06:40:19;;;;;;;16.85;4.50;;;21.90;99.90;;;;;;5094484;28;20640;-67
2021/12/16 06:42:48;;;;;;;8.57;3.33;;;21.90;99.90;;;;;;5096158;28;20024;-67
2021/12/16 06:45:22;;;;;;;14.18;3.67;;;21.90;99.90;;;;;;5094967;28;20077;-66
2021/12/16 06:47:55;;;;;;;13.85;3.72;;;22.00;99.90;;;;;;5095689;28;20019;-66
2021/12/16 06:53:12;;;;;;;8.52;3.50;;;21.60;99.90;;;;;;5092985;28;20558;-69
2021/12/16 06:55:49;;;;;;;11.18;3.80;;;21.40;99.90;;;;;;5090479;28;20039;-72
2021/12/16 06:58:23;;;;;;;10.52;3.15;;;21.40;99.90;;;;;;5093041;28;20024;-75
2021/12/16 07:01:03;;;;;;;6.85;3.20;;;21.40;99.90;;;;;;5091998;28;20032;-73
2021/12/16 07:03:43;;;;;;;8.90;3.10;;;21.30;99.90;;;;;;5092184;28;20472;-71
2021/12/16 07:06:10;;;;;;;6.65;3.10;;;21.30;99.90;;;;;;5094318;28;20024;-69
2021/12/16 07:08:37;;;;;;;13.38;3.47;;;21.30;99.90;;;;;;5093279;28;20015;-74
2021/12/16 07:11:04;;;;;;;7.43;3.67;;;21.30;99.90;;;;;;5096545;28;20391;-69
2021/12/16 07:13:38;;;;;;;7.57;2.92;;;21.30;99.90;;;;;;5097992;27;20441;-75
2021/12/16 07:16:05;;;;;;;10.88;3.45;;;21.30;99.90;;;;;;5095078;28;20474;-75
2021/12/16 07:18:32;;;;;;;8.95;3.38;;;21.10;99.90;;;;;;5096687;28;20074;-72
2021/12/16 07:21:00;;;;;;;12.93;3.55;;;21.00;99.90;;;;;;5096780;27;20123;-73
2021/12/16 07:23:27;;;;;;;8.82;3.10;;;20.90;99.90;;;;;;5098405;27;20020;-74
2021/12/16 07:25:55;;;;;;;10.15;2.50;;;20.90;99.90;;;;;;5096442;28;20448;-74
2021/12/16 07:28:22;;;;;;;9.70;3.30;;;20.80;99.90;;;;;;5096046;28;20392;-74
2021/12/16 07:30:50;;;;;;;9.55;2.67;;;20.70;99.90;;;;;;5097170;28;20032;-69
2021/12/16 07:33:17;;;;;;;9.43;3.60;;;20.70;99.90;;;;;;5097040;28;20087;-70
2021/12/16 07:35:45;;;;;;;8.27;2.92;;;20.80;99.90;;;;;;5095797;28;20063;-71
2021/12/16 07:38:13;;;;;;;8.80;3.13;;;20.80;99.90;;;;;;5096466;28;20035;-71
2021/12/16 07:40:43;;;;;;;9.60;3.58;;;20.90;99.90;;;;;;5095996;28;20035;-74
2021/12/16 07:43:22;;;;;;;10.35;3.47;;;20.80;99.90;;;;;;5096965;28;20102;-74
2021/12/16 07:45:51;;;;;;;7.28;3.58;;;20.80;99.90;;;;;;5095829;28;20042;-70
2021/12/16 07:48:20;;;;;;;11.15;2.97;;;20.80;99.90;;;;;;5094968;28;20060;-76
2021/12/16 07:50:50;;;;;;;11.23;3.08;;;20.70;99.90;;;;;;5096930;28;20028;-72
2021/12/16 07:53:17;;;;;;;7.22;3.15;;;20.60;99.90;;;;;;5096031;27;20518;-74
2021/12/16 07:55:47;;;;;;;7.90;3.33;;;20.50;99.90;;;;;;5097560;28;20487;-73
2021/12/16 07:58:14;;;;;;;9.70;3.20;;;20.50;99.90;;;;;;5097602;28;20111;-72
2021/12/16 08:00:42;;;;;;;8.13;3.60;;;20.50;99.90;;;;;;5094542;28;20035;-69
2021/12/16 08:03:11;;;;;;;9.35;3.50;;;20.60;99.90;;;;;;5096320;28;20475;-69
2021/12/16 08:05:44;;;;;;;5.90;2.97;;;20.60;99.90;;;;;;5095980;28;20020;-73
2021/12/16 08:08:11;;;;;;;10.98;2.80;;;20.60;99.90;;;;;;5096138;28;20055;-73
2021/12/16 08:10:38;;;;;;;9.85;3.30;;;20.60;99.90;;;;;;5096804;28;20036;-74
2021/12/16 08:13:06;;;;;;;10.55;2.88;;;20.70;99.90;;;;;;5096623;28;20514;-74
2021/12/16 08:15:33;;;;;;;8.30;2.65;;;20.70;99.90;;;;;;5093757;28;20633;-69
2021/12/16 08:18:00;;;;;;;9.73;2.78;;;20.80;99.90;;;;;;5093430;28;20480;-71
2021/12/16 08:20:28;;;;;;;9.90;3.83;;;20.70;99.90;;;;;;5093310;28;20028;-74
2021/12/16 08:22:58;;;;;;;11.13;3.15;;;20.70;99.90;;;;;;5094385;28;20028;-69
2021/12/16 08:25:27;;;;;;;8.57;3.15;;;20.70;99.90;;;;;;5093838;28;20351;-69
2021/12/16 08:27:56;;;;;;;9.10;2.90;;;20.70;99.90;;;;;;5090728;28;20031;-68
2021/12/16 08:30:26;;;;;;;8.90;3.20;;;20.70;99.90;;;;;;5091956;28;20028;-72
2021/12/16 08:32:54;;;;;;;7.45;3.20;;;20.60;99.90;;;;;;5091907;28;20496;-69
2021/12/16 08:35:22;;;;;;;8.52;2.63;;;20.50;99.90;;;;;;5092200;28;20601;-73
2021/12/16 08:37:49;;;;;;;8.65;2.88;;;20.50;99.90;;;;;;5090725;28;20027;-68
2021/12/16 08:40:20;;;;;;;10.18;3.65;;;20.50;99.90;;;;;;5092033;28;20140;-76
2021/12/16 08:42:47;;;;;;;9.30;3.70;;;20.60;99.90;;;;;;5093945;28;20046;-76
2021/12/16 08:45:18;;;;;;;7.28;2.97;;;20.60;99.90;;;;;;5091692;28;20047;-70
2021/12/16 08:47:46;;;;;;;7.47;3.05;;;20.60;99.90;;;;;;5094683;28;20023;-69
2021/12/16 08:50:17;;;;;;;5.13;2.10;;;20.50;99.90;;;;;;5098064;27;20028;-76
2021/12/16 08:52:45;;;;;;;8.48;2.45;;;20.40;99.90;;;;;;5093402;28;20027;-76
2021/12/16 08:55:14;;;;;;;8.02;3.20;;;20.40;99.90;;;;;;5092794;28;20024;-72
2021/12/16 08:57:42;;;;;;;9.75;3.40;;;20.30;99.90;;;;;;5092586;28;20110;-72
2021/12/16 09:00:20;;;;;;;6.68;2.95;;;20.30;99.90;;;;;;5089499;28;20510;-68
2021/12/16 09:02:47;;;;;;;9.52;3.33;;;20.30;99.90;;;;;;5092693;28;20031;-69
2021/12/16 09:05:14;;;;;;;10.07;3.05;;;20.30;99.90;;;;;;5091580;28;20024;-68
2021/12/16 09:07:45;;;;;;;7.28;2.95;;;20.30;99.90;;;;;;5091115;28;20024;-73
2021/12/16 09:10:14;;;;;;;8.70;3.35;;;20.30;99.90;;;;;;5091770;28;20553;-69
2021/12/16 09:15:26;;;;;;;9.63;3.00;;;20.30;99.90;;;;;;5091338;28;20034;-73
2021/12/16 09:17:54;;;;;;;7.63;3.30;;;20.30;99.90;;;;;;5102604;28;20330;-68
2021/12/16 09:20:22;;;;;;;12.65;3.28;;;20.30;99.90;;;;;;5101251;28;20054;-70
2021/12/16 09:22:49;;;;;;;8.10;3.00;;;20.30;99.90;;;;;;5104537;28;20031;-75
2021/12/16 09:25:17;;;;;;;6.18;2.90;;;20.30;99.90;;;;;;5100841;28;20092;-74
2021/12/16 09:27:45;;;;;;;8.02;3.05;;;20.30;99.90;;;;;;5098225;28;20028;-69
2021/12/16 09:30:17;;;;;;;11.00;3.05;;;20.30;99.90;;;;;;5098899;28;20115;-70
2021/12/16 09:32:45;;;;;;;8.85;2.75;;;20.30;99.90;;;;;;5101512;28;20059;-73
2021/12/16 09:35:13;;;;;;;9.30;3.75;;;20.30;99.90;;;;;;5099619;28;20035;-69
2021/12/16 09:37:40;;;;;;;6.22;2.88;;;20.40;99.90;;;;;;5101094;28;20536;-70
2021/12/16 09:40:11;;;;;;;7.72;2.95;;;20.30;99.90;;;;;;5099943;28;20062;-70
2021/12/16 09:42:39;;;;;;;9.35;4.32;;;20.30;99.90;;;;;;5101824;28;20118;-72
2021/12/16 09:45:09;;;;;;;7.50;3.20;;;20.30;99.90;;;;;;5100865;28;20050;-70
2021/12/16 09:47:38;;;;;;;6.38;3.20;;;20.30;99.90;;;;;;5102394;28;20047;-73
2021/12/16 09:50:08;;;;;;;8.48;2.70;;;20.40;99.90;;;;;;5101191;28;20030;-69
2021/12/16 09:52:36;;;;;;;6.55;2.70;;;20.40;99.90;;;;;;5102343;28;20034;-72
2021/12/16 09:55:05;;;;;;;7.60;3.60;;;20.40;99.90;;;;;;5103277;28;20038;-74
2021/12/16 09:57:32;;;;;;;9.95;3.90;;;20.40;99.90;;;;;;5102502;28;20032;-70
2021/12/16 10:00:01;;;;;;;5.88;3.03;;;20.40;99.90;;;;;;5099198;28;20540;-69
2021/12/16 10:02:29;;;;;;;8.15;3.80;;;20.40;99.90;;;;;;5102642;28;20506;-69
2021/12/16 10:04:56;;;;;;;6.68;2.95;;;20.40;99.90;;;;;;5100339;28;20451;-69
2021/12/16 10:07:27;;;;;;;9.98;2.72;;;20.50;99.90;;;;;;5100634;28;20038;-77
2021/12/16 10:09:56;;;;;;;7.30;2.92;;;20.40;99.90;;;;;;5100181;28;20768;-77
2021/12/16 10:12:28;;;;;;;7.03;2.80;;;20.40;99.90;;;;;;5102805;28;20062;-76
2021/12/16 10:17:26;;;;;;;7.90;3.42;;;20.30;99.90;;;;;;5102582;28;20035;-80
2021/12/16 10:19:55;;;;;;;6.95;3.17;;;20.20;99.90;;;;;;5099979;28;20518;-69
2021/12/16 10:22:33;;;;;;;6.75;2.97;;;20.20;99.90;;;;;;5102589;28;20033;-70
2021/12/16 10:25:30;;;;;;;7.93;3.08;;;20.20;99.90;;;;;;5095476;28;20023;-75
2021/12/16 10:27:59;;;;;;;7.25;3.83;;;20.10;99.90;;;;;;5097916;28;20031;-70
2021/12/16 10:30:38;;;;;;;6.00;2.80;;;19.90;99.90;;;;;;5102178;28;20031;-72
2021/12/16 10:33:22;;;;;;;6.65;2.83;;;19.90;99.90;;;;;;5102574;28;20031;-73
2021/12/16 10:35:56;;;;;;;10.32;2.72;;;19.80;99.90;;;;;;5101483;28;20023;-71
2021/12/16 10:38:25;;;;;;;9.38;3.03;;;19.80;99.90;;;;;;4744808;28;10000454;-77
2021/12/16 10:40:55;;;;;;;10.82;4.93;;;19.70;99.90;;;;;;5098806;28;20035;-71
2021/12/16 10:43:42;;;;;;;11.35;4.22;;;19.60;99.90;;;;;;5098986;28;20120;-75
2021/12/16 10:46:22;;;;;;;5.63;3.03;;;19.50;99.90;;;;;;5096453;28;20035;-75
2021/12/16 10:48:52;;;;;;;6.95;3.45;;;19.60;99.90;;;;;;5096885;28;20015;-69
2021/12/16 10:51:35;;;;;;;7.40;2.70;;;19.60;99.90;;;;;;5101669;28;20437;-71
2021/12/16 10:54:13;;;;;;;7.55;2.80;;;19.60;99.90;;;;;;5102540;28;20028;-76
2021/12/16 10:56:46;;;;;;;5.82;3.00;;;19.60;99.90;;;;;;5101487;28;20055;-70
2021/12/16 10:59:17;;;;;;;6.63;3.60;;;19.60;99.90;;;;;;5100987;28;20483;-70
2021/12/16 11:01:56;;;;;;;7.43;3.25;;;19.70;99.90;;;;;;5099826;28;20559;-74
2021/12/16 11:04:29;;;;;;;8.55;3.13;;;19.80;99.90;;;;;;5102846;28;20083;-75
2021/12/16 11:07:34;;;;;;;6.60;3.95;;;19.70;99.90;;;;;;5103830;28;20076;-76
2021/12/16 11:10:08;;;;;;;8.40;3.35;;;19.70;99.90;;;;;;5101521;28;20119;-77
2021/12/16 11:12:50;;;;;;;6.95;3.08;;;19.70;99.90;;;;;;5103801;28;20031;-78
2021/12/16 11:15:22;;;;;;;8.97;3.93;;;19.60;99.90;;;;;;5102160;28;20028;-74
2021/12/16 11:18:07;;;;;;;6.78;2.97;;;19.60;99.90;;;;;;5104808;28;20027;-78
2021/12/16 11:20:47;;;;;;;5.38;2.42;;;19.60;99.90;;;;;;5100818;28;21102;-71
2021/12/16 11:23:35;;;;;;;8.65;2.88;;;19.60;99.90;;;;;;5104058;28;20392;-69
2021/12/16 11:26:07;;;;;;;7.47;2.97;;;19.60;99.90;;;;;;5102177;28;20387;-74
2021/12/16 11:28:35;;;;;;;;;;;19.50;99.90;;;;;;5102586;28;20024;-69
2021/12/16 11:31:08;;;;;;;10.90;2.85;;;19.40;99.90;;;;;;5104296;28;19912;-67
2021/12/16 11:33:42;;;;;;;7.40;3.20;;;19.30;99.90;;;;;;5104155;28;20032;-70
2021/12/16 11:36:32;;;;;;;7.80;3.35;;;19.30;99.90;;;;;;5104512;28;20027;-75
2021/12/16 11:39:06;;;;;;;6.15;2.85;;;19.20;99.90;;;;;;5103873;28;20031;-69
2021/12/16 11:41:56;;;;;;;9.23;3.17;;;19.20;99.90;;;;;;5103017;28;20183;-71
2021/12/16 11:44:43;;;;;;;8.02;3.20;;;19.20;99.90;;;;;;5104355;28;20070;-68
2021/12/16 11:47:19;;;;;;;8.52;3.35;;;19.20;99.90;;;;;;5104384;28;20194;-70
2021/12/16 11:50:06;;;;;;;5.38;2.88;;;19.10;99.90;;;;;;5104107;28;20024;-74
2021/12/16 11:52:37;;;;;;;9.25;3.15;;;19.10;99.90;;;;;;5102350;28;20548;-66
2021/12/16 11:55:11;;;;;;;9.50;2.90;;;19.20;99.90;;;;;;5104421;28;20026;-69
2021/12/16 11:57:45;;;;;;;5.68;2.55;;;19.10;99.90;;;;;;5099304;28;20023;-70
2021/12/16 12:00:12;;;;;;;8.25;3.30;;;19.10;99.90;;;;;;5101335;28;20092;-69
2021/12/16 12:02:44;;;;;;;7.30;2.75;;;19.10;99.90;;;;;;5103793;28;20093;-73
2021/12/16 12:05:20;;;;;;;5.70;2.83;;;19.20;99.90;;;;;;5102719;28;20114;-67
2021/12/16 12:07:50;;;;;;;7.40;3.15;;;19.20;99.90;;;;;;5104711;28;20027;-68
2021/12/16 12:10:32;;;;;;;7.57;3.67;;;19.30;99.90;;;;;;5104734;27;20501;-74
2021/12/16 12:13:06;;;;;;;11.38;3.08;;;19.20;99.90;;;;;;5105474;28;20549;-69
2021/12/16 12:15:52;;;;;;;10.60;3.13;;;19.20;99.90;;;;;;5103483;28;20042;-68
2021/12/16 12:18:47;;;;;;;8.05;3.60;;;19.30;99.90;;;;;;5104378;28;20055;-66
2021/12/16 12:21:25;;;;;;;12.48;3.55;;;19.20;99.90;;;;;;5103688;28;20250;-66
2021/12/16 12:24:00;;;;;;;14.32;3.00;;;19.20;99.90;;;;;;5102808;28;20181;-74
2021/12/16 12:26:29;;;;;;;10.27;3.22;;;19.10;99.90;;;;;;5106552;28;20470;-68
2021/12/16 12:29:00;;;;;;;9.55;3.58;;;19.10;99.90;;;;;;5105633;28;20159;-66
2021/12/16 12:31:30;;;;;;;12.02;3.08;;;19.10;99.90;;;;;;5108064;27;20443;-67
2021/12/16 12:33:57;;;;;;;12.63;2.90;;;19.00;99.90;;;;;;5104842;28;20038;-69
2021/12/16 12:36:24;;;;;;;7.97;2.78;;;19.10;99.90;;;;;;5105676;28;20027;-68
2021/12/16 12:38:52;;;;;;;10.38;3.10;;;19.00;99.90;;;;;;5106566;27;20381;-69
2021/12/16 12:41:21;;;;;;;8.65;2.78;;;19.00;99.90;;;;;;5106267;28;20110;-67
2021/12/16 12:43:48;;;;;;;8.00;2.60;;;19.10;99.90;;;;;;5101711;28;21092;-75
2021/12/16 12:46:15;;;;;;;9.98;2.90;;;19.10;99.90;;;;;;5105088;28;20092;-68
2021/12/16 12:48:43;;;;;;;7.78;2.50;;;19.20;99.90;;;;;;5106263;28;20030;-71
2021/12/16 12:51:11;;;;;;;8.98;2.45;;;19.20;99.90;;;;;;5104695;28;20175;-67
2021/12/16 12:53:51;;;;;;;12.50;2.83;;;19.20;99.90;;;;;;5105884;28;20038;-70
2021/12/16 12:56:44;;;;;;;12.68;2.90;;;19.30;99.90;;;;;;5103797;28;20483;-73
2021/12/16 12:59:15;;;;;;;9.35;2.97;;;19.20;99.90;;;;;;5099425;28;20036;-70
2021/12/16 13:01:55;;;;;;;11.15;3.10;;;19.20;99.90;;;;;;5105297;28;20892;-71
2021/12/16 13:04:26;;;;;;;10.98;3.08;;;19.20;99.90;;;;;;5105246;28;20070;-71
2021/12/16 13:06:55;;;;;;;9.38;3.45;;;19.20;99.90;;;;;;5104122;28;20034;-71
2021/12/16 13:09:44;;;;;;;11.30;3.67;;;19.10;99.90;;;;;;5105626;28;20961;-70
2021/12/16 13:12:42;;;;;;;6.72;2.50;;;19.20;99.90;;;;;;5105401;28;20374;-70
2021/12/16 13:24:18;;;;;;;7.45;2.83;;;19.10;99.90;;;;;;5105785;28;20076;-67
2021/12/16 13:30:41;;;;;;;11.77;2.95;;;19.10;99.90;;;;;;5104806;28;20080;-69
2021/12/16 13:33:15;;;;;;;9.48;3.10;;;19.00;99.90;;;;;;5094868;28;20039;-71
2021/12/16 13:35:49;;;;;;;9.50;2.97;;;18.90;99.90;;;;;;5105456;28;20016;-70
2021/12/16 13:38:20;;;;;;;13.60;3.40;;;19.00;99.90;;;;;;5104712;28;20043;-67
2021/12/16 13:40:49;;;;;;;16.70;3.53;;;19.00;99.90;;;;;;5103364;28;20035;-69
2021/12/16 13:43:34;;;;;;;9.77;4.05;;;19.00;99.90;;;;;;5105393;28;20423;-69
2021/12/16 13:46:30;;;;;;;11.68;4.10;;;19.00;99.90;;;;;;5104568;28;20120;-68
2021/12/16 14:03:27;;;;;;;17.55;4.00;;;18.70;99.90;;;;;;5104828;28;20016;-69
2021/12/16 14:08:48;;;;;;;6.63;3.30;;;18.70;99.90;;;;;;5104644;28;20490;-70
2021/12/16 14:15:22;;;;;;;11.18;4.18;;;18.70;99.90;;;;;;5104936;28;20108;-66
2021/12/16 14:18:08;;;;;;;8.73;4.03;;;18.70;99.90;;;;;;5102130;28;20546;-66
2021/12/16 14:23:44;;;;;;;12.30;3.55;;;18.60;99.90;;;;;;5107418;28;20042;-69
2021/12/16 14:26:38;;;;;;;9.43;4.53;;;18.50;99.90;;;;;;5107743;28;20111;-69
2021/12/16 14:39:58;;;;;;;9.88;3.30;;;18.40;99.90;;;;;;5108230;28;20041;-69
2021/12/16 14:42:42;;;;;;;11.10;4.15;;;18.40;99.90;;;;;;5107027;28;20355;-64
2021/12/16 14:48:21;;;;;;;10.05;3.75;;;18.40;99.90;;;;;;5107768;28;20036;-71
2021/12/16 14:50:50;;;;;;;15.10;4.35;;;18.30;99.90;;;;;;5104986;28;20036;-71
2021/12/16 14:53:32;;;;;;;8.10;4.03;;;18.30;99.90;;;;;;5108241;28;20420;-72
2021/12/16 14:56:25;;;;;;;7.07;3.90;;;18.40;99.90;;;;;;5105735;28;20076;-70
2021/12/16 14:59:00;;;;;;;;;;;18.30;99.90;;;;;;5104173;28;20023;-64
2021/12/16 15:01:36;;;;;;;9.63;4.50;;;18.30;99.90;;;;;;5107785;28;19998;-70
2021/12/16 15:04:06;;;;;;;16.90;4.22;;;18.30;99.90;;;;;;5107053;28;20457;-66
2021/12/16 15:06:43;;;;;;;17.50;3.42;;;18.30;99.90;;;;;;5107896;28;20203;-64
2021/12/16 15:09:23;;;;;;;11.57;4.38;;;18.20;99.90;;;;;;5108206;28;20016;-70
2021/12/16 15:12:48;;;;;;;10.25;3.90;;;18.30;99.90;;;;;;5107682;28;20034;-64
2021/12/16 15:15:48;;;;;;;9.27;4.25;;;18.30;99.90;;;;;;5106347;28;20373;-70
2021/12/16 15:43:03;;;;;;;9.65;4.30;;;18.40;99.90;;;;;;5108458;28;20018;-69
2021/12/16 15:45:44;;;;;;;13.30;5.22;;;18.40;99.90;;;;;;5106393;28;20518;-66
2021/12/16 15:48:13;;;;;;;13.77;4.65;;;18.40;99.90;;;;;;5106257;28;20023;-66
2021/12/16 15:50:48;;;;;;;11.63;3.88;;;18.50;99.90;;;;;;5104080;28;20027;-71
2021/12/16 15:53:20;;;;;;;8.65;3.78;;;18.50;99.90;;;;;;5107459;28;20568;-67
2021/12/16 15:55:52;;;;;;;10.75;4.00;;;18.30;99.90;;;;;;5105454;28;20027;-67
2021/12/16 15:58:26;;;;;;;8.95;3.58;;;18.20;99.90;;;;;;5106286;28;20053;-72
2021/12/16 16:01:00;;;;;;;6.45;3.20;;;18.30;99.90;;;;;;5104392;28;20039;-67
2021/12/16 16:03:29;;;;;;;12.23;3.95;;;18.30;99.90;;;;;;5106742;28;20020;-70
2021/12/16 16:06:03;;;;;;;10.00;3.80;;;18.40;99.90;;;;;;5106526;28;20324;-67
2021/12/16 16:08:33;;;;;;;8.10;4.32;;;18.40;99.90;;;;;;5099229;28;20035;-68
2021/12/16 16:11:03;;;;;;;9.05;4.53;;;18.50;99.90;;;;;;5105320;28;20411;-68
2021/12/16 16:13:41;;;;;;;11.13;4.80;;;18.40;99.90;;;;;;5110293;28;20383;-68
2021/12/16 16:16:09;;;;;;;11.55;4.53;;;18.40;99.90;;;;;;5108537;28;20027;-70
2021/12/16 16:18:41;;;;;;;8.73;3.60;;;18.50;99.90;;;;;;5110556;28;20059;-70
2021/12/16 16:21:15;;;;;;;16.92;5.07;;;18.50;99.90;;;;;;5109392;28;20035;-66
2021/12/16 16:23:47;;;;;;;15.85;4.13;;;18.40;99.90;;;;;;5109315;28;20038;-72
2021/12/16 16:26:15;;;;;;;7.03;3.17;;;18.50;99.90;;;;;;5109482;28;20024;-66
2021/12/16 16:28:45;;;;;;;10.27;3.72;;;18.50;99.90;;;;;;5110058;28;20050;-71
2021/12/16 16:31:20;;;;;;;9.05;3.60;;;18.50;99.90;;;;;;5103446;28;20032;-72
2021/12/16 16:33:47;;;;;;;15.63;3.58;;;18.40;99.90;;;;;;5109946;28;20068;-67
2021/12/16 16:36:18;;;;;;;15.25;4.07;;;18.50;99.90;;;;;;5109842;28;20414;-68
2021/12/16 16:38:52;;;;;;;7.63;3.45;;;18.50;99.90;;;;;;5110060;28;20023;-71
2021/12/16 16:41:22;;;;;;;9.10;3.58;;;18.50;99.90;;;;;;5109940;28;20031;-70
2021/12/16 16:43:56;;;;;;;9.50;3.28;;;18.50;99.90;;;;;;5109780;28;20023;-71
2021/12/16 16:46:35;;;;;;;8.88;3.22;;;18.40;99.90;;;;;;5109545;28;20036;-68
2021/12/16 16:49:08;;;;;;;13.48;3.22;;;18.40;99.90;;;;;;5110320;28;20019;-66
2021/12/16 16:51:44;;;;;;;5.53;3.30;;;18.50;99.90;;;;;;5109060;28;20044;-68
2021/12/16 16:54:37;;;;;;;8.25;3.90;;;18.50;99.90;;;;;;5109357;28;20043;-68
2021/12/16 16:57:16;;;;;;;9.15;3.55;;;18.40;99.90;;;;;;5095226;28;20462;-66
2021/12/16 16:59:45;;;;;;;7.00;3.37;;;18.50;99.90;;;;;;5104227;28;20039;-69
2021/12/16 17:02:27;;;;;;;6.88;3.80;;;18.50;99.90;;;;;;5109772;28;20049;-71